createdAt,value
2023-01-17T00:01:54.597Z,63.87
2023-01-17T00:04:59.960Z,64.03
2023-01-17T00:08:04.347Z,63.92
2023-01-17T00:10:50.240Z,63.60
2023-01-17T00:13:35.868Z,63.39
2023-01-17T00:16:21.625Z,63.94
2023-01-17T00:19:25.907Z,63.82
2023-01-17T00:22:38.934Z,63.51
2023-01-17T00:25:50.939Z,63.96
2023-01-17T00:28:41.177Z,63.68
2023-01-17T00:31:27.260Z,63.71
2023-01-17T00:34:12.904Z,64.03
2023-01-17T00:36:58.723Z,63.41
2023-01-17T00:39:44.519Z,63.46
2023-01-17T00:42:30.644Z,63.68
2023-01-17T00:45:35.108Z,63.79
2023-01-17T00:48:39.574Z,63.62
2023-01-17T00:51:45.174Z,63.59
2023-01-17T00:54:49.344Z,64.00
2023-01-17T00:57:54.543Z,64.99
2023-01-17T01:00:58.945Z,64.13
2023-01-17T01:04:03.388Z,63.82
2023-01-17T01:07:07.872Z,63.86
2023-01-17T01:10:12.132Z,64.03
2023-01-17T01:13:16.282Z,64.45
2023-01-17T01:16:23.385Z,64.19
2023-01-17T01:19:27.739Z,64.18
2023-01-17T01:22:32.189Z,64.23
2023-01-17T01:25:36.772Z,64.07
2023-01-17T01:28:41.527Z,64.82
2023-01-17T01:31:46.065Z,63.89
2023-01-17T01:34:32.180Z,63.74
2023-01-17T01:37:17.778Z,63.90
2023-01-17T01:40:03.931Z,63.70
2023-01-17T01:42:58.498Z,64.21
2023-01-17T01:45:48.394Z,64.68
2023-01-17T01:48:37.125Z,64.86
2023-01-17T01:51:26.769Z,64.86
2023-01-17T01:54:17.239Z,64.27
2023-01-17T01:57:05.793Z,64.66
2023-01-17T01:59:57.460Z,64.62
2023-01-17T02:02:44.417Z,64.41
2023-01-17T02:05:30.574Z,64.44
2023-01-17T02:08:22.099Z,63.93
2023-01-17T02:11:08.174Z,64.68
2023-01-17T02:15:07.474Z,64.93
2023-01-17T02:18:51.592Z,64.99
2023-01-17T02:21:57.751Z,64.81
2023-01-17T02:25:03.830Z,64.80
2023-01-17T02:28:32.863Z,65.68
2023-01-17T02:32:01.273Z,65.63
2023-01-17T02:35:15.725Z,65.19
2023-01-17T02:38:31.698Z,65.87
2023-01-17T02:41:36.852Z,65.39
2023-01-17T02:44:24.045Z,65.21
2023-01-17T02:47:23.566Z,65.35
2023-01-17T02:51:41.653Z,65.34
2023-01-17T02:54:47.348Z,65.27
2023-01-17T02:58:13.313Z,65.31
2023-01-17T03:02:07.258Z,64.74
2023-01-17T03:05:00.926Z,64.26
2023-01-17T03:07:48.407Z,64.68
2023-01-17T03:10:35.460Z,64.92
2023-01-17T03:13:22.738Z,64.61
2023-01-17T03:16:14.508Z,65.31
2023-01-17T03:19:01.037Z,64.94
2023-01-17T03:21:46.629Z,65.80
2023-01-17T03:24:32.363Z,65.54
2023-01-17T03:27:18.175Z,65.10
2023-01-17T03:30:04.647Z,65.20
2023-01-17T03:32:50.514Z,65.16
2023-01-17T03:36:01.339Z,64.62
2023-01-17T03:38:47.195Z,65.63
2023-01-17T03:42:08.188Z,65.52
2023-01-17T03:44:53.920Z,65.03
2023-01-17T03:47:39.565Z,65.53
2023-01-17T03:50:25.491Z,65.70
2023-01-17T03:53:26.836Z,65.24
2023-01-17T03:56:13.355Z,65.50
2023-01-17T03:59:00.185Z,65.50
2023-01-17T04:01:48.077Z,65.66
2023-01-17T04:04:34.213Z,65.81
2023-01-17T04:07:20.587Z,65.46
2023-01-17T04:10:06.941Z,65.99
2023-01-17T04:12:52.835Z,65.63
2023-01-17T04:16:49.583Z,65.57
2023-01-17T04:19:36.502Z,65.39
2023-01-17T04:22:22.479Z,65.21
2023-01-17T04:25:31.032Z,65.73
2023-01-17T04:29:01.933Z,65.11
2023-01-17T04:31:48.741Z,65.68
2023-01-17T04:34:34.769Z,65.30
2023-01-17T05:19:55.571Z,65.43
2023-01-17T05:31:53.830Z,65.79
2023-01-17T05:34:39.567Z,66.03
2023-01-17T05:43:20.322Z,65.48
2023-01-17T05:46:08.250Z,65.67
2023-01-17T05:48:54.763Z,65.55
2023-01-17T05:51:40.766Z,65.80
2023-01-17T05:54:26.506Z,65.70
2023-01-17T06:03:11.563Z,65.51
2023-01-17T06:05:57.467Z,66.02
2023-01-17T06:08:43.788Z,65.92
2023-01-17T06:16:13.346Z,65.39
2023-01-17T06:18:59.098Z,65.45
2023-01-17T06:21:44.730Z,65.85
2023-01-17T06:24:30.636Z,65.86
2023-01-17T06:27:16.722Z,65.96
2023-01-17T06:34:40.667Z,66.05
2023-01-17T06:37:26.461Z,65.69
2023-01-17T06:40:48.226Z,65.78
2023-01-17T06:43:34.985Z,66.10
2023-01-17T06:46:20.957Z,65.50
2023-01-17T06:53:31.351Z,65.90
2023-01-17T06:56:17.045Z,66.32
2023-01-17T06:59:19.371Z,65.83
2023-01-17T07:02:04.926Z,65.60
2023-01-17T07:04:50.778Z,65.60
2023-01-17T07:07:36.756Z,65.47
2023-01-17T07:10:23.714Z,65.99
2023-01-17T07:13:09.576Z,66.45
2023-01-17T07:15:55.548Z,66.55
2023-01-17T07:18:41.154Z,66.28
2023-01-17T07:21:27.051Z,65.99
2023-01-17T07:24:27.066Z,65.96
2023-01-17T07:27:12.555Z,66.25
2023-01-17T07:29:58.354Z,65.83
2023-01-17T07:32:44.319Z,66.02
2023-01-17T07:35:30.230Z,65.69
2023-01-17T07:38:18.285Z,65.73
2023-01-17T07:41:03.964Z,66.14
2023-01-17T07:43:49.810Z,65.93
2023-01-17T07:46:40.817Z,66.11
2023-01-17T07:49:26.878Z,65.73
2023-01-17T07:52:13.230Z,65.66
2023-01-17T07:55:01.209Z,65.65
2023-01-17T07:57:50.339Z,65.42
2023-01-17T08:00:36.427Z,66.01
2023-01-17T08:03:22.120Z,65.59
2023-01-17T08:06:47.460Z,65.66
2023-01-17T08:09:33.248Z,65.52
2023-01-17T08:12:31.235Z,65.92
2023-01-17T08:15:23.852Z,65.77
2023-01-17T08:18:09.953Z,65.55
2023-01-17T08:20:55.848Z,65.76
2023-01-17T08:23:41.594Z,65.43
2023-01-17T08:26:27.502Z,65.53
2023-01-17T08:29:13.490Z,65.76
2023-01-17T08:31:59.178Z,65.84
2023-01-17T08:34:44.775Z,65.99
2023-01-17T08:37:30.424Z,65.62
2023-01-17T08:40:19.858Z,65.82
2023-01-17T08:43:05.907Z,66.26
2023-01-17T08:45:55.939Z,65.75
2023-01-17T08:48:41.774Z,65.71
2023-01-17T08:51:27.882Z,66.01
2023-01-17T08:54:15.299Z,66.12
2023-01-17T08:57:03.425Z,65.73
2023-01-17T08:59:49.277Z,65.93
2023-01-17T09:02:34.868Z,66.25
2023-01-17T09:05:20.924Z,65.90
2023-01-17T09:08:06.511Z,65.55
2023-01-17T09:10:52.314Z,65.74
2023-01-17T09:13:38.470Z,65.85
2023-01-17T09:16:24.489Z,65.48
2023-01-17T09:19:10.550Z,65.63
2023-01-17T09:21:56.269Z,65.41
2023-01-17T09:24:42.224Z,65.15
2023-01-17T09:27:28.018Z,65.42
2023-01-17T09:30:14.219Z,65.35
2023-01-17T09:32:59.925Z,65.35
2023-01-17T09:35:46.491Z,65.41
2023-01-17T09:38:33.531Z,65.67
2023-01-17T09:41:23.274Z,65.23
2023-01-17T09:44:40.507Z,65.21
2023-01-17T09:47:41.565Z,65.30
2023-01-17T09:50:33.645Z,65.32
2023-01-17T09:53:22.611Z,65.52
2023-01-17T09:56:15.196Z,65.55
2023-01-17T09:59:20.656Z,65.48
2023-01-17T10:02:34.307Z,65.30
2023-01-17T10:05:35.994Z,65.34
2023-01-17T10:08:30.931Z,65.24
2023-01-17T10:11:31.730Z,65.03
2023-01-17T10:14:51.581Z,64.87
2023-01-17T10:17:53.877Z,64.96
2023-01-17T10:20:46.958Z,64.85
2023-01-17T10:24:13.773Z,64.96
2023-01-17T10:27:00.755Z,65.22
2023-01-17T10:29:47.992Z,65.48
2023-01-17T10:32:35.437Z,65.29
2023-01-17T10:35:28.549Z,65.31
2023-01-17T10:38:18.525Z,64.80
2023-01-17T10:41:14.263Z,65.23
2023-01-17T10:44:36.442Z,64.99
2023-01-17T10:47:24.477Z,65.29
2023-01-17T10:50:13.242Z,64.90
2023-01-17T10:53:12.053Z,64.93
2023-01-17T10:55:58.077Z,65.31
2023-01-17T10:58:43.979Z,65.29
2023-01-17T11:01:30.152Z,65.17
2023-01-17T11:04:36.796Z,65.06
2023-01-17T11:07:28.259Z,65.09
2023-01-17T11:10:40.123Z,64.59
2023-01-17T11:13:30.390Z,64.62
2023-01-17T11:16:27.361Z,64.16
2023-01-17T11:19:26.011Z,63.57
2023-01-17T11:22:14.293Z,63.36
2023-01-17T11:25:02.606Z,63.20
2023-01-17T11:28:00.660Z,63.19
2023-01-17T11:30:55.655Z,62.98
2023-01-17T11:33:47.931Z,63.33
2023-01-17T11:36:35.722Z,63.35
2023-01-17T11:39:25.975Z,63.26
2023-01-17T11:42:34.758Z,63.05
2023-01-17T11:45:29.303Z,63.45
2023-01-17T11:48:17.792Z,63.41
2023-01-17T11:51:39.188Z,62.71
2023-01-17T11:54:42.168Z,61.95
2023-01-17T11:57:33.472Z,62.35
2023-01-17T12:00:41.043Z,61.51
2023-01-17T12:03:54.467Z,62.02
2023-01-17T12:07:03.071Z,61.68
2023-01-17T12:09:48.752Z,61.97
2023-01-17T12:13:29.123Z,61.91
2023-01-17T12:16:53.569Z,59.28
2023-01-17T12:20:01.188Z,61.00
2023-01-17T12:23:35.335Z,60.82
2023-01-17T12:26:50.715Z,60.58
2023-01-17T12:29:39.403Z,61.65
2023-01-17T12:32:43.489Z,61.56
2023-01-17T12:35:41.118Z,61.16
2023-01-17T12:38:33.553Z,60.49
2023-01-17T12:41:28.241Z,59.05
2023-01-17T12:44:16.361Z,58.68
2023-01-17T12:47:04.047Z,57.50
2023-01-17T12:50:04.927Z,57.85
2023-01-17T12:53:10.738Z,57.78
2023-01-17T12:56:14.772Z,55.34
2023-01-17T12:59:26.785Z,54.03
2023-01-17T13:02:34.213Z,56.43
2023-01-17T13:05:23.736Z,56.83
2023-01-17T13:08:28.641Z,56.25
2023-01-17T13:11:30.309Z,55.71
2023-01-17T13:14:16.633Z,57.68
2023-01-17T13:17:27.182Z,55.39
2023-01-17T13:20:33.739Z,55.34
2023-01-17T13:23:48.792Z,57.47
2023-01-17T13:26:58.619Z,56.08
2023-01-17T13:30:04.082Z,53.85
2023-01-17T13:33:07.117Z,54.51
2023-01-17T13:36:08.507Z,56.88
2023-01-17T13:39:24.189Z,55.04
2023-01-17T13:47:11.409Z,57.27
2023-01-17T13:49:57.510Z,57.03
2023-01-17T13:52:43.262Z,57.27
2023-01-17T13:55:46.951Z,56.20
2023-01-17T13:58:50.222Z,56.19
2023-01-17T14:01:38.713Z,57.12
2023-01-17T14:04:25.256Z,57.29
2023-01-17T14:07:21.120Z,56.87
2023-01-17T14:10:43.160Z,55.74
2023-01-17T14:13:31.953Z,57.12
2023-01-17T14:16:22.949Z,57.06
2023-01-17T14:19:25.705Z,56.78
2023-01-17T14:22:20.953Z,56.85
2023-01-17T14:25:17.552Z,57.08
2023-01-17T14:28:08.323Z,57.21
2023-01-17T14:30:56.577Z,57.33
2023-01-17T14:33:43.095Z,57.26
2023-01-17T14:36:32.395Z,56.98
2023-01-17T14:39:23.289Z,57.16
2023-01-17T14:42:13.312Z,57.13
2023-01-17T14:45:04.217Z,56.67
2023-01-17T14:47:51.797Z,56.90
2023-01-17T14:50:42.566Z,56.97
2023-01-17T14:53:30.751Z,57.28
2023-01-17T14:56:17.957Z,57.07
2023-01-17T14:59:16.928Z,57.11
2023-01-17T15:02:08.759Z,57.20
2023-01-17T15:04:55.287Z,57.46
2023-01-17T15:07:43.606Z,57.46
2023-01-17T15:10:32.195Z,57.43
2023-01-17T15:13:27.796Z,57.57
2023-01-17T15:16:25.760Z,57.78
2023-01-17T15:19:13.884Z,57.85
2023-01-17T15:21:59.963Z,57.60
2023-01-17T15:24:46.988Z,57.83
2023-01-17T15:27:33.549Z,57.93
2023-01-17T15:30:19.660Z,57.98
2023-01-17T15:33:05.778Z,58.26
2023-01-17T15:36:00.182Z,58.28
2023-01-17T15:38:52.657Z,58.50
2023-01-17T15:41:39.719Z,58.53
2023-01-17T15:44:53.018Z,58.84
2023-01-17T15:47:39.423Z,58.73
2023-01-17T15:50:30.627Z,58.83
2023-01-17T15:53:37.147Z,59.36
2023-01-17T15:56:33.683Z,59.62
2023-01-17T15:59:45.556Z,59.96
2023-01-17T16:02:58.956Z,60.38
2023-01-17T16:05:46.181Z,59.58
2023-01-17T16:08:38.698Z,59.37
2023-01-17T16:11:24.727Z,59.43
2023-01-17T16:14:11.604Z,59.21
2023-01-17T16:17:01.644Z,59.52
2023-01-17T16:19:47.444Z,59.49
2023-01-17T16:22:34.223Z,59.64
2023-01-17T16:25:21.887Z,59.63
2023-01-17T16:28:07.513Z,60.04
2023-01-17T16:30:54.088Z,59.82
2023-01-17T16:33:42.428Z,59.85
2023-01-17T16:36:28.251Z,59.80
2023-01-17T16:39:15.246Z,59.71
2023-01-17T16:42:03.994Z,59.89
2023-01-17T16:44:49.880Z,59.82
2023-01-17T16:47:35.666Z,59.85
2023-01-17T16:50:23.794Z,59.95
2023-01-17T16:53:09.418Z,59.79
2023-01-17T16:55:58.232Z,59.81
2023-01-17T16:58:43.991Z,59.88
2023-01-17T17:01:30.112Z,60.33
2023-01-17T17:04:16.341Z,59.99
2023-01-17T17:07:02.364Z,59.70
2023-01-17T17:09:48.230Z,59.86
2023-01-17T17:12:34.629Z,59.41
2023-01-17T17:15:21.665Z,59.77
2023-01-17T17:18:15.197Z,59.89
2023-01-17T17:21:02.267Z,59.99
2023-01-17T17:23:51.008Z,59.87
2023-01-17T17:26:37.112Z,59.69
2023-01-17T17:29:22.868Z,59.80
2023-01-17T17:32:11.762Z,60.03
2023-01-17T17:34:57.971Z,59.69
2023-01-17T17:37:43.836Z,59.89
2023-01-17T17:40:29.935Z,59.97
2023-01-17T17:43:15.941Z,59.73
2023-01-17T17:46:01.529Z,60.14
2023-01-17T17:48:47.911Z,60.12
2023-01-17T17:51:36.379Z,59.96
2023-01-17T17:54:22.588Z,60.22
2023-01-17T17:57:09.633Z,60.52
2023-01-17T17:59:56.848Z,60.47
2023-01-17T18:02:42.486Z,60.58
2023-01-17T18:05:28.223Z,60.55
2023-01-17T18:08:14.060Z,60.42
2023-01-17T18:11:04.968Z,60.75
2023-01-17T18:13:52.060Z,60.87
2023-01-17T18:16:41.790Z,60.58
2023-01-17T18:19:27.689Z,60.93
2023-01-17T18:22:13.615Z,60.91
2023-01-17T18:24:59.571Z,60.50
2023-01-17T18:27:45.435Z,60.47
2023-01-17T18:30:37.140Z,60.98
2023-01-17T18:33:22.868Z,60.89
2023-01-17T18:36:10.913Z,60.88
2023-01-17T18:38:57.160Z,60.76
2023-01-17T18:41:43.041Z,60.52
2023-01-17T18:44:30.151Z,60.48
2023-01-17T18:47:15.892Z,60.32
2023-01-17T18:50:01.660Z,60.78
2023-01-17T18:52:47.473Z,60.56
2023-01-17T18:55:33.335Z,60.71
2023-01-17T18:58:21.072Z,60.44
2023-01-17T19:01:25.495Z,60.55
2023-01-17T19:04:14.474Z,60.37
2023-01-17T19:07:00.327Z,60.74
2023-01-17T19:09:46.016Z,60.62
2023-01-17T19:12:32.767Z,60.46
2023-01-17T19:15:18.419Z,60.73
2023-01-17T19:18:04.833Z,60.52
2023-01-17T19:20:50.711Z,60.38
2023-01-17T19:23:37.538Z,60.39
2023-01-17T19:26:25.175Z,60.57
2023-01-17T19:29:12.137Z,60.42
2023-01-17T19:31:58.250Z,60.46
2023-01-17T19:34:44.220Z,60.56
2023-01-17T19:37:30.039Z,60.58
2023-01-17T19:40:17.777Z,60.65
2023-01-17T19:43:04.765Z,60.42
2023-01-17T19:46:00.130Z,60.38
2023-01-17T19:48:46.097Z,60.37
2023-01-17T19:51:31.843Z,60.13
2023-01-17T19:54:18.102Z,60.28
2023-01-17T19:57:03.992Z,60.22
2023-01-17T19:59:50.374Z,60.48
2023-01-17T20:02:37.884Z,60.48
2023-01-17T20:05:24.135Z,60.27
2023-01-17T20:08:09.947Z,60.01
2023-01-17T20:11:01.649Z,60.25
2023-01-17T20:13:49.248Z,60.42
2023-01-17T20:16:36.435Z,60.15
2023-01-17T20:19:22.619Z,60.40
2023-01-17T20:22:08.717Z,60.29
2023-01-17T20:24:54.632Z,60.37
2023-01-17T20:27:44.461Z,60.19
2023-01-17T20:30:31.885Z,60.39
2023-01-17T20:33:18.790Z,60.31
2023-01-17T20:36:10.443Z,60.39
2023-01-17T20:39:12.313Z,60.25
2023-01-17T20:41:58.166Z,60.49
2023-01-17T20:44:44.706Z,60.11
2023-01-17T20:47:30.337Z,60.28
2023-01-17T20:50:16.686Z,60.19
2023-01-17T20:53:03.843Z,60.40
2023-01-17T20:55:56.068Z,60.33
2023-01-17T20:58:44.067Z,60.54
2023-01-17T21:06:25.045Z,60.40
2023-01-17T21:09:13.054Z,60.49
2023-01-17T21:12:06.177Z,60.89
2023-01-17T21:15:24.878Z,61.14
2023-01-17T21:18:10.644Z,60.88
2023-01-17T21:21:02.955Z,60.92
2023-01-17T21:25:25.417Z,61.07
2023-01-17T21:28:12.207Z,60.72
2023-01-17T21:30:58.040Z,60.89
2023-01-17T21:33:44.175Z,60.96
2023-01-17T21:36:35.371Z,61.09
2023-01-17T21:39:23.323Z,60.75
2023-01-17T21:42:10.808Z,60.92
2023-01-17T21:45:09.380Z,60.85
2023-01-17T21:48:40.684Z,61.07
2023-01-17T21:51:51.800Z,60.87
2023-01-17T21:55:10.219Z,61.04
2023-01-17T21:58:21.542Z,60.89
2023-01-17T22:01:09.063Z,60.82
2023-01-17T22:04:00.287Z,60.89
2023-01-17T22:06:46.611Z,61.01
2023-01-17T22:09:32.585Z,61.13
2023-01-17T22:12:18.649Z,61.01
2023-01-17T22:15:05.009Z,60.83
2023-01-17T22:17:50.920Z,61.04
2023-01-17T22:21:29.030Z,60.83
2023-01-17T22:24:17.003Z,61.08
2023-01-17T22:27:04.032Z,61.14
2023-01-17T22:29:49.921Z,60.86
2023-01-17T22:32:35.644Z,61.07
2023-01-17T22:35:21.552Z,60.88
2023-01-17T22:38:07.462Z,60.82
2023-01-17T22:40:53.151Z,61.06
2023-01-17T22:44:18.705Z,61.35
2023-01-17T22:47:04.600Z,61.20
2023-01-17T22:50:23.687Z,61.27
2023-01-17T22:53:10.465Z,61.27
2023-01-17T22:56:09.745Z,61.52
2023-01-17T22:58:55.912Z,61.49
2023-01-17T23:01:41.695Z,61.37
2023-01-17T23:04:28.570Z,61.47
2023-01-17T23:07:15.722Z,61.56
2023-01-17T23:11:09.375Z,61.73
2023-01-17T23:15:31.482Z,61.77
2023-01-17T23:18:49.450Z,61.62
2023-01-17T23:21:55.847Z,61.47
2023-01-17T23:25:30.700Z,61.99
2023-01-17T23:28:22.878Z,62.07
2023-01-17T23:31:13.187Z,61.61
2023-01-17T23:38:37.958Z,61.63
2023-01-17T23:45:18.119Z,61.99
2023-01-17T23:48:05.704Z,61.99
2023-01-17T23:50:51.988Z,62.21
2023-01-17T23:54:21.743Z,62.20
2023-01-17T23:57:07.847Z,62.09
2023-01-17T23:59:53.607Z,61.81
